Northern & Central Napa County

33 Stations

15 Minute Data | America/Los_Angeles
as of 9/3/26 1:50 AM PDT
Station Date Time Temp (°F) RH (%) Dew Pt (°F) Wind Spd (mph) Wind Dir (°) Wind Gust (mph) Latest Rain (In) Daily Rain (In) Daily Max Temp (°F) Daily Min Temp (°F)
Tenma (North Calistoga) 9/3/26 0145 57.1   1.6 - - - - - 0.00 0.00 57.1   1.6 55.7   0.7
Calistoga-Solari 9/3/26 0145 56.6   0.5 91   6 53.9   1.4 1.8   1.5 W | 280 3.9   3.0 0.00 0.00 56.9   0.4 55.4   1.0
Calistoga-North 9/3/26 0145 58.0   0.6 90   5 55.2   1.1 - - - 0.00 0.00 58.4   0.5 56.9   1.2
Twomey Calistoga 9/3/26 0145 56.0   2.0 91   4 53.3   0.8 1.5   1.4 WSW | 256 3.1   2.3 0.00 0.00 56.0   2.0 55.4   5.6
Paloma 9/3/26 0145 59.8   2.0 83   2 54.5   1.4 2.9   1.1 ESE | 114 7.9   4.4 0.00 0.00 59.8   2.0 58.7   2.6
Calistoga (Ranch 78) 9/3/26 0145 57.3   0.3 86   5 53.2   1.9 2.2   2.2 NNW | 330 5.2   4.5 0.00 0.00 57.3   0.3 55.8   1.1
Diamond Mtn (Schramsberg) 9/3/26 0145 55.9   0.9 88   2 52.3   0.3 - - - 0.00 0.00 56.0   0.9 55.6   0.3
Diamond Mtn (McEachran) 9/3/26 0145 56.5   2.1 90   6 53.5   0.2 - - - - - 56.8   1.7 56.3   1.2
Deer Park 9/3/26 0145 57.6   0.2 86   5 53.3   1.6 3.6   2.1 NNW | 333 6.1   3.2 0.00 0.00 57.8   0.4 57.5   0.7
St. Helena-North 9/3/26 0145 56.5   1.1 82   7 51.0   1.1 0.5   0.4 WNW | 294 2.4   1.1 0.00 0.00 57.8   0.1 56.3   0.4
St. Helena (NVV Office) 9/3/26 0145 58.6   0.1 - - 1.8   1.3 NE | 49 4.4   2.4 0.00 0.00 59.0   0.2 58.4   0.2
Tiara Fria (East St. Helena) 9/3/26 0145 59.0   3.4 80   3 53.0   2.4 0.7   0.6 SE | 135 2.7   1.5 0.00 0.00 59.6   4.0 58.4   3.1
Prisoner Winery 9/3/26 0145 54.1   2.2 91   6 51.5   0.3 1.1   0.8 SSE | 153 3.4   1.9 0.00 0.00 55.1   1.3 54.0   0.9
Rutherford Hill Estate 9/3/26 0145 57.0   0.2 85   0 52.5   0.3 0.6   1.1 ESE | 108 2.2   0.9 0.00 0.00 57.8   0.2 56.9   0.9
Rutherford-North (Mee Ln) 9/3/26 0145 51.4   3.3 90   4 48.6   2.1 0.6   0.2 S | 180 2.0   0.7 0.00 0.00 53.1   2.0 51.0   2.8
Rutherford (STS) 9/3/26 0145 54.2   0.3 91   0 51.7   0.2 0.9   0.8 SW | 218 4.0   3.1 0.00 0.00 54.2   1.7 51.2   2.7
Silver Oak OV 9/3/26 0145 52.6   2.3 89   2 49.3   1.5 0.4   0.2 WSW | 240 1.5   0.4 0.00 0.00 54.4   1.6 52.1   2.6
Oakville-NE (Ranch 88) 9/3/26 0145 50.8   4.4 83   3 45.8   3.4 0.0   0.0 N | 0 0.0   0.0 0.00 0.00 51.8   3.4 50.6   3.2
Crossroads Ranch 9/3/26 0145 52.7   2.6 86   2 48.8   1.9 0.3   0.2 WSW | 257 1.1   0.1 0.00 0.00 54.4   1.9 52.7   2.6
Oakville 9/3/26 0145 53.4   1.7 86   2 49.5   1.2 0.8   0.3 NNE | 24 1.9   0.0 0.00 0.00 56.3   0.5 53.0   2.0
To Kalon Remote (TKKE) 9/3/26 0145 55.2   1.3 - - - - - - - 57.2   0.8 54.8   1.4
To Kalon 9/3/26 0145 56.8   1.5 86   2 52.7   1.0 0.7   0.1 SW | 219 2.5   0.5 0.00 0.00 59.2   2.3 56.6   1.4
To Kalon Remote (TKN5) 9/3/26 0145 57.8   1.8 - - - - - - - 59.3   2.4 57.3   2.1
Jump Rock 9/3/26 0145 50.1   5.5 98   3 49.6   6.3 0.8   0.4 N | 353 5.3   3.4 0.00 0.00 50.5   4.6 48.8   5.1
State Lane Ranch 9/3/26 0145 55.0   3.0 90   3 52.1   2.2 2.0   1.6 SSW | 195 4.0   2.0 0.00 0.00 56.3   3.7 54.8   2.9
Yountville (Ranch 67) 9/3/26 0145 54.9   3.0 86   0 50.8   3.0 1.5   1.1 SE | 136 3.6   1.3 0.00 0.00 55.6   3.3 54.8   3.1
Borreo (Soda Canyon) 9/3/26 0145 54.0   0.9 91   3 51.5   1.8 1.0   0.4 NNW | 328 3.6   1.9 0.00 0.00 54.6   1.2 53.6   2.8
Wappo Hill Floor 9/3/26 0145 56.6   3.5 86   1 52.3   3.2 1.2   1.1 S | 176 3.6   2.1 0.00 0.00 56.6   3.5 56.0   3.9
Wappo Hill 9/3/26 0145 57.1   0.2 85   2 52.6   0.8 1.9   0.6 SSE | 160 3.7   0.9 0.00 0.00 59.2   1.9 56.9   0.9
Stags Leap Dist (Chimney Rock) 9/3/26 0145 57.7   4.9 86   6 53.6   3.0 1.9   1.6 SW | 215 4.4   3.1 0.00 0.00 57.9   5.0 56.4   4.0
Stags Leap Dist (Silverado Vineyards) 9/3/26 0145 55.6   2.6 88   0 52.1   2.5 0.7   0.5 E | 90 2.5   0.7 0.00 0.00 55.9   2.7 55.4   2.9
Yountville-SE (Ranch 85) 9/3/26 0145 56.3   2.4 87   1 52.6   2.1 1.0   0.7 SSW | 195 2.5   1.2 0.00 0.00 56.8   2.7 56.2   3.2
Yountville-South (Ranch 87) 9/3/26 0145 55.5   1.3 91   4 52.9   2.5 0.3   0.1 SE | 136 2.2   0.7 0.00 0.00 55.8   1.4 54.6   2.2
Max     59.8 98 55.2 3.6 - 7.9 0.00 0.00 59.8 58.7
Avg     55.7 88 51.8 1.2 - 3.3 0.00 - - -
Min     50.1 80 45.8 0.0 - 0.0 0.00 0.00 50.5 48.8